Terminal Aerodrome Forecast
Issued by NWS

Home | Current Version | Previous Version | Text Only | Print | Product List | Glossary On
Versions: 1 2 3 4 5 6 7 8 9 10 11 12 13 14 15 16
000
FTUS42 KTAE 230520
TAFECP
TAF
KECP 230520Z 2306/2406 21007KT P6SM -RA SCT020 BKN100
     FM230900 22013G18KT 5SM -RA VCTS BKN015CB
     FM231500 24014G20KT 5SM SHRA VCTS BKN025CB
     FM232100 22008G15KT P6SM -RA OVC050=

USA.gov is the U.S. government's official web portal to all federal, state and local government web resources and services.